Terminal Aerodrome Forecast
Issued by NWS Wichita, KS

Home | Current Version | Previous Version | Text Only | Print | Product List | Glossary On
Versions: 1 2 3 4 5 6 7 8 9 10 11 12 13 14 15 16 17 18
675
FTUS43 KICT 190333 AAC
TAFICT
TAF AMD
KICT 190333Z 1904/1924 15013KT P6SM BKN045
     FM190600 17009KT P6SM BKN040
     FM191400 17013KT P6SM SCT070
     FM191700 18017G26KT P6SM SCT100
     FM192000 18022G30KT P6SM SCT100=

USA.gov is the U.S. government's official web portal to all federal, state and local government web resources and services.